Orto / Ocaso: 05:01 / 19:25 UTC (Datos para LEAX 25-05-2017)

[fuente: ADDS]

METAR:


LEMG 251530Z 15008KT 110V210 CAVOK 25/11 Q1012 NOSIG =
LEGR 251530Z 18012KT 140V220 9999 FEW040 36/06 Q1012 =
LEZL 251530Z 22007G17KT 170V250 CAVOK 32/14 Q1010 NOSIG =
LEAM 251530Z 07021KT CAVOK 32/08 Q1010 =
LEBA 251530Z AUTO 26006KT 220V320 9999 NCD 34/11 Q1009 =
LEJR 251530Z 18010KT 140V230 9999 FEW030 32/10 Q1011 =
GEML 251530Z VRB02KT 9999 SCT007 BKN009 21/18 Q1012 =
LXGB 251550Z 11007KT CAVOK 23/15 Q1012 NOSIG =

TAFOR:


TAF LEMG 251100Z 2512/2612 14008KT CAVOK TX26/2514Z TN17/2606Z BECMG 2521/2523 29004KT BECMG 2607/2609 13006KT =
TAF LEGR 251400Z 2515/2615 18012KT 9999 FEW040 TX36/2515Z TN16/2606Z PROB40 TEMPO 2515/2519 17015G25KT 4000 SHRA FEW030CB BECMG 2519/2521 VRB02KT BECMG 2610/2612 18012KT PROB30 TEMPO 2612/2615 4000 SHRA FEW030CB =
TAF LEZL 251400Z 2515/2615 24009KT CAVOK TX33/2516Z TN17/2605Z TEMPO 2604/2609 BKN009 =
TAF LEAM 251400Z 2515/2615 08016KT CAVOK TX33/2515Z TN22/2606Z BECMG 2515/2517 21008KT BECMG 2519/2521 35010KT BECMG 2604/2606 21006KT =
TAF LEBA 251400Z 2515/2524 24009KT 9999 SCT040 PROB40 TEMPO 2515/2520 FEW030TCU =
TAF LEJR 251100Z 2512/2612 VRB05KT CAVOK TX32/2515Z TN17/2605Z TEMPO 2512/2518 24010KT TEMPO 2602/2610 4000 BR BKN006 =
TAF GEML 251400Z 2515/2615 04005KT 9999 FEW006 BKN009 TX25/2613Z TN18/2606Z TEMPO 2515/2518 BKN012 BECMG 2609/2611 SCT015 =
TAF LXGB 251331Z 2515/2522 11010KT 9999 FEW025 =

Recuerde que, aunque regularmente actualizada, la información meteorológica aquí presentada no debe ser utilizada para la planificación de vuelos. Si lo desea, puede consultar la información meteorológica adecuada, tanto de aeródromos como en ruta, por las vías oficialmente establecidas en la legislación -> AQUí